createdAt,value
2018-12-06T00:01:46.639Z,5.03
2018-12-06T00:04:13.343Z,4.83
2018-12-06T00:06:40.028Z,4.70
2018-12-06T00:09:06.494Z,4.63
2018-12-06T00:11:33.278Z,5.03
2018-12-06T00:13:59.754Z,5.20
2018-12-06T00:16:26.234Z,4.73
2018-12-06T00:18:57.464Z,5.13
2018-12-06T00:21:24.167Z,5.07
2018-12-06T00:23:50.667Z,4.50
2018-12-06T00:26:17.350Z,5.27
2018-12-06T00:28:43.967Z,5.37
2018-12-06T00:31:10.560Z,5.23
2018-12-06T00:33:37.151Z,5.30
2018-12-06T00:36:03.913Z,4.87
2018-12-06T00:38:30.422Z,4.93
2018-12-06T00:40:56.907Z,5.17
2018-12-06T00:43:23.865Z,5.20
2018-12-06T00:45:50.376Z,4.83
2018-12-06T00:48:16.754Z,5.47
2018-12-06T00:50:43.395Z,5.07
2018-12-06T00:53:09.989Z,4.67
2018-12-06T00:55:36.470Z,5.30
2018-12-06T00:58:03.067Z,5.13
2018-12-06T01:00:29.762Z,4.50
2018-12-06T01:02:56.235Z,5.60
2018-12-06T01:05:22.814Z,5.63
2018-12-06T01:07:49.421Z,6.73
2018-12-06T01:10:16.015Z,5.50
2018-12-06T01:12:43.705Z,6.33
2018-12-06T01:15:11.255Z,5.73
2018-12-06T01:17:37.850Z,6.00
2018-12-06T01:20:04.435Z,5.50
2018-12-06T01:22:31.908Z,5.70
2018-12-06T01:24:58.511Z,5.60
2018-12-06T01:27:24.984Z,5.40
2018-12-06T01:29:51.576Z,5.47
2018-12-06T01:32:18.071Z,5.50
2018-12-06T01:34:44.662Z,5.37
2018-12-06T01:37:11.472Z,5.33
2018-12-06T01:39:37.995Z,5.40
2018-12-06T01:42:04.700Z,5.30
2018-12-06T01:44:31.449Z,5.43
2018-12-06T01:46:57.939Z,4.67
2018-12-06T01:49:24.449Z,5.40
2018-12-06T01:51:50.930Z,5.70
2018-12-06T01:54:17.346Z,5.97
2018-12-06T01:56:44.056Z,5.73
2018-12-06T01:59:10.855Z,5.57
2018-12-06T02:01:37.457Z,6.40
2018-12-06T02:04:04.249Z,6.33
2018-12-06T02:06:30.864Z,5.93
2018-12-06T02:08:57.576Z,6.23
2018-12-06T02:11:24.074Z,6.13
2018-12-06T02:13:50.663Z,6.50
2018-12-06T02:16:17.357Z,6.87
2018-12-06T02:18:43.846Z,6.63
2018-12-06T02:21:10.364Z,6.37
2018-12-06T02:23:36.832Z,6.67
2018-12-06T02:26:03.531Z,7.17
2018-12-06T02:28:30.130Z,8.10
2018-12-06T02:30:56.600Z,6.97
2018-12-06T02:33:22.964Z,8.30
2018-12-06T02:35:49.594Z,7.50
2018-12-06T02:38:16.296Z,7.53
2018-12-06T02:40:42.991Z,8.07
2018-12-06T02:43:09.683Z,8.10
2018-12-06T02:45:36.240Z,8.10
2018-12-06T02:48:02.852Z,8.57
2018-12-06T02:50:29.571Z,8.17
2018-12-06T02:52:56.036Z,9.10
2018-12-06T02:55:22.562Z,8.93
2018-12-06T02:57:49.149Z,8.87
2018-12-06T03:00:15.658Z,8.53
2018-12-06T03:02:42.137Z,8.90
2018-12-06T03:05:08.618Z,9.57
2018-12-06T03:07:35.091Z,9.47
2018-12-06T03:10:01.549Z,10.33
2018-12-06T03:12:28.038Z,10.00
2018-12-06T03:14:54.654Z,9.53
2018-12-06T03:17:21.273Z,9.83
2018-12-06T03:19:47.972Z,9.33
2018-12-06T03:22:14.561Z,10.23
2018-12-06T03:24:41.152Z,9.70
2018-12-06T03:27:07.734Z,9.53
2018-12-06T03:29:34.215Z,8.57
2018-12-06T03:32:00.705Z,8.90
2018-12-06T03:34:27.067Z,8.50
2018-12-06T03:36:53.558Z,8.90
2018-12-06T03:39:20.251Z,8.53
2018-12-06T03:41:46.858Z,9.40
2018-12-06T03:44:13.464Z,9.27
2018-12-06T03:46:40.060Z,9.37
2018-12-06T03:49:06.559Z,10.23
2018-12-06T03:51:33.159Z,10.23
2018-12-06T03:53:59.720Z,9.63
2018-12-06T03:56:26.233Z,10.50
2018-12-06T03:58:52.830Z,10.73
2018-12-06T04:01:19.218Z,10.50
2018-12-06T04:03:45.707Z,10.67
2018-12-06T04:06:12.298Z,10.60
2018-12-06T04:08:38.783Z,10.77
2018-12-06T04:11:05.358Z,11.47
2018-12-06T04:13:31.852Z,9.97
2018-12-06T04:15:58.329Z,11.13
2018-12-06T04:18:24.838Z,10.47
2018-12-06T04:20:51.423Z,11.77
2018-12-06T04:23:17.915Z,12.53
2018-12-06T04:25:44.500Z,12.03
2018-12-06T04:28:11.115Z,11.47
2018-12-06T04:30:37.812Z,12.30
2018-12-06T04:33:04.271Z,11.70
2018-12-06T04:35:31.055Z,12.27
2018-12-06T04:37:57.582Z,11.77
2018-12-06T04:40:24.173Z,12.33
2018-12-06T04:42:50.665Z,12.47
2018-12-06T04:45:17.259Z,12.13
2018-12-06T04:47:44.971Z,12.60
2018-12-06T04:50:11.460Z,11.80
2018-12-06T04:52:38.064Z,12.90
2018-12-06T04:55:04.526Z,13.93
2018-12-06T04:57:30.904Z,13.60
2018-12-06T04:59:57.503Z,12.77
2018-12-06T05:02:24.083Z,13.23
2018-12-06T05:04:50.578Z,13.77
2018-12-06T05:07:17.121Z,12.67
2018-12-06T05:09:43.619Z,13.70
2018-12-06T05:12:10.078Z,14.03
2018-12-06T05:14:36.678Z,14.27
2018-12-06T05:17:03.254Z,15.30
2018-12-06T05:19:29.850Z,15.47
2018-12-06T05:21:56.451Z,14.33
2018-12-06T05:24:22.943Z,13.63
2018-12-06T05:26:49.404Z,14.57
2018-12-06T05:29:15.902Z,15.33
2018-12-06T05:31:42.488Z,15.03
2018-12-06T05:34:08.978Z,14.77
2018-12-06T05:36:35.564Z,15.27
2018-12-06T05:39:03.854Z,16.55
2018-12-06T05:41:30.350Z,16.07
2018-12-06T05:43:56.866Z,15.77
2018-12-06T05:46:23.449Z,16.83
2018-12-06T05:48:50.067Z,14.63
2018-12-06T05:51:16.535Z,16.60
2018-12-06T05:53:42.999Z,16.37
2018-12-06T05:56:09.495Z,15.70
2018-12-06T05:58:36.076Z,16.03
2018-12-06T06:01:02.684Z,15.70
2018-12-06T06:03:29.170Z,15.47
2018-12-06T06:05:55.883Z,15.77
2018-12-06T06:08:22.407Z,15.40
2018-12-06T06:10:48.900Z,15.37
2018-12-06T06:13:15.599Z,16.10
2018-12-06T06:15:42.095Z,16.03
2018-12-06T06:18:08.708Z,15.40
2018-12-06T06:20:35.077Z,14.50
2018-12-06T06:23:01.664Z,15.33
2018-12-06T06:25:28.137Z,15.17
2018-12-06T06:27:54.826Z,14.80
2018-12-06T06:30:21.547Z,14.63
2018-12-06T06:32:48.359Z,14.47
2018-12-06T06:35:14.729Z,14.90
2018-12-06T06:37:41.319Z,14.97
2018-12-06T06:40:07.786Z,14.77
2018-12-06T06:42:34.250Z,14.60
2018-12-06T06:45:01.090Z,15.27
2018-12-06T06:47:28.613Z,15.73
2018-12-06T06:49:55.147Z,14.87
2018-12-06T06:52:21.767Z,15.70
2018-12-06T06:54:48.253Z,15.17
2018-12-06T06:57:14.718Z,15.27
2018-12-06T06:59:41.213Z,15.60
2018-12-06T07:02:07.696Z,15.47
2018-12-06T07:04:34.274Z,15.77
2018-12-06T07:07:01.000Z,16.37
2018-12-06T07:09:27.486Z,14.90
2018-12-06T07:11:54.083Z,14.93
2018-12-06T07:14:20.543Z,16.13
2018-12-06T07:16:47.237Z,15.70
2018-12-06T07:19:13.819Z,15.73
2018-12-06T07:21:40.427Z,15.63
2018-12-06T07:24:07.014Z,14.87
2018-12-06T07:26:33.667Z,15.90
2018-12-06T07:29:00.247Z,15.00
2018-12-06T07:31:26.726Z,16.40
2018-12-06T07:33:54.334Z,15.43
2018-12-06T07:36:20.915Z,15.77
2018-12-06T07:38:47.510Z,16.17
2018-12-06T07:41:14.195Z,14.90
2018-12-06T07:43:40.786Z,14.87
2018-12-06T07:46:08.634Z,14.67
2018-12-06T07:48:35.359Z,14.40
2018-12-06T07:51:01.963Z,15.50
2018-12-06T07:53:28.582Z,15.33
2018-12-06T07:55:55.177Z,16.17
2018-12-06T07:58:21.780Z,14.80
2018-12-06T08:00:48.370Z,16.00
2018-12-06T08:03:14.902Z,15.27
2018-12-06T08:05:41.397Z,14.60
2018-12-06T08:08:08.131Z,13.57
2018-12-06T08:10:34.727Z,14.87
2018-12-06T08:13:01.330Z,13.60
2018-12-06T08:15:27.913Z,14.70
2018-12-06T08:17:54.609Z,14.53
2018-12-06T08:20:21.199Z,14.67
2018-12-06T08:22:47.708Z,15.90
2018-12-06T08:25:14.290Z,17.13
2018-12-06T08:27:40.643Z,14.67
2018-12-06T08:30:07.278Z,15.27
2018-12-06T08:32:33.757Z,16.33
2018-12-06T08:35:00.356Z,14.80
2018-12-06T08:37:26.718Z,13.80
2018-12-06T08:39:53.232Z,13.93
2018-12-06T08:42:19.823Z,13.70
2018-12-06T08:44:46.305Z,13.00
2018-12-06T08:47:12.882Z,12.77
2018-12-06T08:49:39.486Z,13.83
2018-12-06T08:52:06.185Z,14.03
2018-12-06T08:54:32.687Z,14.90
2018-12-06T08:56:59.267Z,14.77
2018-12-06T08:59:25.628Z,12.53
2018-12-06T09:01:52.099Z,12.97
2018-12-06T09:04:18.590Z,14.37
2018-12-06T09:06:45.166Z,15.00
2018-12-06T09:09:11.539Z,14.57
2018-12-06T09:11:38.031Z,14.07
2018-12-06T09:14:04.626Z,16.33
2018-12-06T09:16:31.075Z,16.10
2018-12-06T09:18:57.689Z,15.10
2018-12-06T09:21:24.269Z,14.50
2018-12-06T09:23:50.964Z,15.20
2018-12-06T09:26:17.699Z,15.67
2018-12-06T09:28:44.279Z,15.10
2018-12-06T09:31:10.739Z,14.33
2018-12-06T09:33:39.141Z,14.67
2018-12-06T09:36:05.648Z,15.23
2018-12-06T09:38:32.010Z,15.80
2018-12-06T09:40:58.503Z,14.87
2018-12-06T09:43:25.084Z,14.80
2018-12-06T09:45:51.687Z,13.57
2018-12-06T09:48:18.295Z,13.67
2018-12-06T09:50:44.899Z,13.77
2018-12-06T09:53:11.378Z,14.13
2018-12-06T09:55:37.980Z,14.57
2018-12-06T09:58:04.467Z,14.80
2018-12-06T10:00:31.087Z,14.93
2018-12-06T10:02:57.419Z,14.63
2018-12-06T10:05:24.014Z,13.17
2018-12-06T10:07:50.493Z,13.97
2018-12-06T10:10:17.194Z,12.97
2018-12-06T10:12:43.788Z,13.93
2018-12-06T10:15:10.280Z,13.30
2018-12-06T10:17:36.882Z,13.43
2018-12-06T10:20:04.109Z,14.00
2018-12-06T10:22:30.594Z,14.90
2018-12-06T10:24:57.066Z,14.07
2018-12-06T10:27:23.668Z,13.87
2018-12-06T10:29:50.259Z,13.03
2018-12-06T10:32:18.475Z,13.07
2018-12-06T10:34:45.467Z,14.00
2018-12-06T10:37:16.420Z,13.67
2018-12-06T10:39:43.107Z,12.90
2018-12-06T10:42:09.611Z,14.23
2018-12-06T10:44:36.206Z,14.43
2018-12-06T10:47:02.810Z,13.23
2018-12-06T10:49:29.419Z,13.10
2018-12-06T10:51:55.896Z,14.13
2018-12-06T10:54:22.479Z,15.23
2018-12-06T10:56:49.090Z,13.00
2018-12-06T10:59:15.582Z,12.87
2018-12-06T11:01:44.397Z,13.00
2018-12-06T11:04:10.980Z,14.67
2018-12-06T11:06:37.395Z,14.40
2018-12-06T11:09:05.411Z,14.00
2018-12-06T11:11:32.117Z,14.43
2018-12-06T11:13:58.822Z,14.37
2018-12-06T11:16:25.516Z,14.50
2018-12-06T11:18:51.979Z,14.30
2018-12-06T11:21:18.580Z,13.57
2018-12-06T11:23:45.111Z,13.20
2018-12-06T11:26:11.623Z,13.57
2018-12-06T11:28:38.215Z,14.10
2018-12-06T11:31:04.591Z,12.60
2018-12-06T11:33:31.090Z,12.40
2018-12-06T11:35:57.687Z,13.23
2018-12-06T11:38:24.326Z,12.53
2018-12-06T11:40:50.832Z,13.00
2018-12-06T11:43:17.254Z,13.23
2018-12-06T11:45:43.755Z,13.30
2018-12-06T11:48:10.293Z,12.77
2018-12-06T11:50:36.787Z,12.60
2018-12-06T11:53:03.388Z,14.03
2018-12-06T11:55:29.956Z,13.43
2018-12-06T11:57:56.671Z,13.07
2018-12-06T12:00:23.267Z,13.07
2018-12-06T12:02:49.769Z,12.87
2018-12-06T12:05:16.253Z,13.50
2018-12-06T12:07:42.757Z,13.00
2018-12-06T12:10:09.250Z,13.90
2018-12-06T12:12:35.746Z,16.70
2018-12-06T12:15:02.623Z,16.07
2018-12-06T12:17:29.124Z,15.77
2018-12-06T12:19:55.728Z,14.53
2018-12-06T12:22:22.310Z,18.50
2018-12-06T12:24:48.820Z,20.57
2018-12-06T12:27:15.415Z,16.20
2018-12-06T12:29:41.909Z,14.70
2018-12-06T12:32:08.623Z,14.00
2018-12-06T12:34:35.115Z,14.83
2018-12-06T12:37:01.811Z,14.93
2018-12-06T12:39:28.180Z,13.27
2018-12-06T12:41:57.843Z,12.13
2018-12-06T12:44:24.446Z,11.93
2018-12-06T12:46:51.027Z,11.47
2018-12-06T12:49:17.398Z,10.40
2018-12-06T12:51:43.898Z,10.93
2018-12-06T12:54:10.392Z,10.77
2018-12-06T12:56:36.859Z,10.87
2018-12-06T12:59:03.226Z,12.57
2018-12-06T13:01:29.707Z,11.37
2018-12-06T13:03:56.307Z,11.50
2018-12-06T13:06:22.911Z,10.40
2018-12-06T13:08:49.416Z,11.10
2018-12-06T13:11:15.906Z,10.30
2018-12-06T13:13:42.402Z,10.80
2018-12-06T13:16:08.890Z,11.40
2018-12-06T13:18:35.388Z,10.50
2018-12-06T13:21:02.000Z,10.40
2018-12-06T13:23:28.369Z,10.40
2018-12-06T13:25:54.858Z,10.50
2018-12-06T13:28:21.350Z,9.93
2018-12-06T13:30:47.839Z,9.23
2018-12-06T13:33:14.531Z,8.80
2018-12-06T13:35:40.994Z,9.00
2018-12-06T13:38:07.475Z,9.83
2018-12-06T13:40:33.967Z,8.63
2018-12-06T13:43:00.468Z,9.90
2018-12-06T13:45:26.975Z,9.53
2018-12-06T13:47:53.691Z,10.57
2018-12-06T13:50:20.187Z,9.03
2018-12-06T13:52:46.555Z,9.43
2018-12-06T13:55:13.023Z,9.57
2018-12-06T13:57:39.847Z,8.40
2018-12-06T14:00:06.684Z,8.43
2018-12-06T14:02:33.234Z,9.03
2018-12-06T14:04:59.954Z,9.50
2018-12-06T14:07:26.431Z,8.90
2018-12-06T14:09:53.028Z,9.53
2018-12-06T14:12:19.750Z,9.77
2018-12-06T14:14:46.231Z,9.77
2018-12-06T14:17:12.777Z,10.27
2018-12-06T14:19:39.323Z,10.13
2018-12-06T14:22:06.055Z,9.67
2018-12-06T14:24:32.528Z,9.03
2018-12-06T14:26:59.135Z,9.43
2018-12-06T14:29:25.627Z,8.43
2018-12-06T14:31:52.231Z,9.53
2018-12-06T14:34:18.579Z,9.13
2018-12-06T14:36:45.067Z,10.43
2018-12-06T14:39:11.551Z,9.30
2018-12-06T14:41:38.164Z,9.63
2018-12-06T14:44:04.783Z,8.93
2018-12-06T14:46:31.299Z,9.07
2018-12-06T14:48:57.924Z,8.17
2018-12-06T14:51:24.517Z,7.93
2018-12-06T14:53:51.102Z,7.93
2018-12-06T14:56:17.730Z,7.17
2018-12-06T14:58:44.222Z,6.77
2018-12-06T15:01:10.948Z,7.17
2018-12-06T15:03:37.603Z,8.10
2018-12-06T15:06:04.221Z,7.20
2018-12-06T15:08:31.287Z,6.90
2018-12-06T15:10:57.807Z,7.73
2018-12-06T15:13:24.339Z,7.80
2018-12-06T15:15:50.935Z,8.37
2018-12-06T15:18:17.434Z,7.73
2018-12-06T15:20:44.015Z,8.43
2018-12-06T15:23:10.476Z,6.97
2018-12-06T15:25:41.812Z,7.90
2018-12-06T15:28:05.493Z,7.10
2018-12-06T15:30:31.993Z,8.20
2018-12-06T15:32:58.487Z,8.43
2018-12-06T15:35:24.842Z,8.70
2018-12-06T15:37:51.333Z,9.37
2018-12-06T15:40:17.911Z,9.63
2018-12-06T15:42:44.411Z,9.03
2018-12-06T15:45:10.885Z,9.93
2018-12-06T15:47:37.391Z,11.07
2018-12-06T15:50:03.991Z,8.67
2018-12-06T15:52:30.714Z,8.30
2018-12-06T15:55:00.083Z,7.03
2018-12-06T15:57:26.566Z,6.67
2018-12-06T15:59:53.075Z,6.90
2018-12-06T16:02:19.676Z,6.63
2018-12-06T16:04:46.267Z,6.80
2018-12-06T16:07:13.975Z,6.73
2018-12-06T16:09:40.568Z,7.30
2018-12-06T16:12:07.259Z,7.80
2018-12-06T16:14:33.772Z,7.57
2018-12-06T16:17:00.260Z,7.17
2018-12-06T16:19:26.845Z,7.60
2018-12-06T16:21:53.326Z,8.23
2018-12-06T16:24:19.951Z,8.70
2018-12-06T16:26:46.457Z,10.83
2018-12-06T16:29:12.979Z,11.37
2018-12-06T16:31:39.461Z,11.83
2018-12-06T16:34:06.191Z,11.40
2018-12-06T16:36:33.668Z,9.63
2018-12-06T16:39:00.183Z,8.93
2018-12-06T16:41:26.550Z,8.97
2018-12-06T16:43:53.059Z,10.20
2018-12-06T16:46:21.107Z,11.57
2018-12-06T16:49:18.975Z,17.37
2018-12-06T16:51:45.463Z,14.87
2018-12-06T16:54:11.931Z,12.50
2018-12-06T16:56:38.529Z,14.17
2018-12-06T16:59:05.107Z,14.87
2018-12-06T17:01:31.786Z,15.87
2018-12-06T17:03:58.476Z,17.03
2018-12-06T17:06:24.984Z,18.60
2018-12-06T17:08:54.510Z,16.77
2018-12-06T17:11:21.004Z,13.43
2018-12-06T17:13:47.543Z,16.53
2018-12-06T17:16:14.055Z,19.80
2018-12-06T17:18:40.540Z,15.53
2018-12-06T17:21:07.043Z,15.33
2018-12-06T17:23:34.633Z,10.63
2018-12-06T17:26:01.341Z,8.83
2018-12-06T17:28:27.934Z,8.27
2018-12-06T17:30:54.532Z,7.53
2018-12-06T17:33:21.218Z,7.00
2018-12-06T17:35:47.783Z,7.83
2018-12-06T17:38:14.275Z,7.73
2018-12-06T17:40:40.777Z,7.53
2018-12-06T17:43:07.369Z,8.20
2018-12-06T17:45:34.084Z,22.33
2018-12-06T17:48:00.599Z,13.70
2018-12-06T17:50:27.075Z,17.50
2018-12-06T17:52:53.571Z,19.17
2018-12-06T17:55:19.920Z,11.13
2018-12-06T17:57:46.390Z,10.93
2018-12-06T18:00:12.975Z,24.27
2018-12-06T18:02:39.455Z,19.00
2018-12-06T18:05:08.850Z,14.00
2018-12-06T18:07:35.343Z,8.80
2018-12-06T18:10:02.702Z,9.33
2018-12-06T18:12:29.302Z,11.97
2018-12-06T18:14:55.660Z,11.40
2018-12-06T18:17:22.139Z,10.07
2018-12-06T18:19:48.963Z,8.53
2018-12-06T18:22:15.479Z,9.47
2018-12-06T18:24:41.954Z,8.40
2018-12-06T18:27:08.648Z,8.00
2018-12-06T18:29:35.248Z,8.50
2018-12-06T18:32:01.756Z,9.93
2018-12-06T18:34:28.387Z,8.87
2018-12-06T18:36:54.899Z,8.67
2018-12-06T18:39:21.271Z,9.20
2018-12-06T18:41:47.755Z,9.53
2018-12-06T18:44:14.407Z,8.37
2018-12-06T18:46:41.386Z,9.67
2018-12-06T18:49:07.923Z,9.10
2018-12-06T18:51:34.647Z,15.93
2018-12-06T18:54:01.262Z,14.23
2018-12-06T18:56:27.974Z,12.43
2018-12-06T18:58:54.503Z,11.20
2018-12-06T19:01:20.852Z,10.00
2018-12-06T19:03:47.318Z,11.00
2018-12-06T19:06:13.823Z,10.87
2018-12-06T19:08:40.430Z,12.27
2018-12-06T19:11:07.023Z,11.93
2018-12-06T19:13:33.765Z,11.63
2018-12-06T19:16:00.137Z,13.23
2018-12-06T19:18:26.659Z,12.40
2018-12-06T19:20:53.278Z,13.27
2018-12-06T19:23:19.742Z,12.67
2018-12-06T19:25:46.247Z,12.83
2018-12-06T19:28:12.775Z,12.23
2018-12-06T19:30:39.293Z,12.73
2018-12-06T19:33:05.823Z,11.40
2018-12-06T19:35:31.799Z,11.97
2018-12-06T19:37:58.401Z,11.53
2018-12-06T19:40:25.111Z,11.40
2018-12-06T19:42:51.819Z,10.60
2018-12-06T19:45:18.320Z,11.10
2018-12-06T19:47:44.903Z,11.53
2018-12-06T19:50:11.568Z,11.60
2018-12-06T19:52:38.081Z,13.53
2018-12-06T19:55:04.800Z,13.33
2018-12-06T19:57:31.298Z,12.27
2018-12-06T19:59:57.790Z,11.17
2018-12-06T20:02:24.295Z,10.97
2018-12-06T20:04:50.979Z,10.13
2018-12-06T20:07:17.463Z,11.83
2018-12-06T20:09:43.815Z,11.73
2018-12-06T20:12:12.066Z,10.60
2018-12-06T20:14:39.047Z,10.90
2018-12-06T20:17:05.763Z,11.00
2018-12-06T20:19:32.376Z,10.73
2018-12-06T20:21:58.911Z,11.10
2018-12-06T20:24:25.421Z,10.30
2018-12-06T20:26:52.209Z,9.57
2018-12-06T20:29:18.729Z,10.83
2018-12-06T20:31:45.450Z,10.50
2018-12-06T20:34:11.934Z,13.00
2018-12-06T20:36:38.449Z,11.43
2018-12-06T20:39:05.477Z,10.43
2018-12-06T20:41:31.973Z,10.63
2018-12-06T20:43:58.465Z,10.50
2018-12-06T20:46:24.827Z,10.30
2018-12-06T20:48:51.348Z,9.73
2018-12-06T20:51:17.873Z,10.27
2018-12-06T20:53:44.460Z,10.10
2018-12-06T20:56:10.966Z,9.60
2018-12-06T20:58:37.383Z,10.30
2018-12-06T21:01:03.872Z,10.07
2018-12-06T21:03:30.374Z,9.47
2018-12-06T21:05:57.086Z,10.93
2018-12-06T21:08:23.722Z,9.33
2018-12-06T21:10:50.195Z,9.30
2018-12-06T21:13:16.571Z,9.20
2018-12-06T21:15:43.054Z,9.70
2018-12-06T21:18:09.554Z,9.43
2018-12-06T21:20:36.043Z,9.77
2018-12-06T21:23:02.515Z,9.70
2018-12-06T21:25:29.231Z,8.90
2018-12-06T21:27:55.727Z,7.97
2018-12-06T21:30:22.387Z,8.37
2018-12-06T21:32:49.014Z,8.57
2018-12-06T21:35:15.386Z,8.30
2018-12-06T21:37:41.903Z,7.17
2018-12-06T21:40:08.379Z,8.07
2018-12-06T21:42:35.124Z,6.57
2018-12-06T21:45:01.748Z,6.90
2018-12-06T21:47:28.255Z,7.57
2018-12-06T21:49:54.851Z,7.30
2018-12-06T21:52:21.438Z,7.30
2018-12-06T21:54:48.045Z,7.80
2018-12-06T21:57:14.650Z,7.80
2018-12-06T21:59:41.173Z,7.70
2018-12-06T22:02:09.700Z,8.10
2018-12-06T22:04:36.068Z,7.57
2018-12-06T22:07:02.530Z,8.10
2018-12-06T22:09:29.138Z,8.23
2018-12-06T22:11:55.826Z,6.70
2018-12-06T22:14:22.516Z,7.93
2018-12-06T22:16:49.104Z,6.47
2018-12-06T22:19:15.712Z,6.47
2018-12-06T22:21:42.130Z,6.87
2018-12-06T22:24:08.623Z,7.00
2018-12-06T22:26:35.204Z,7.03
2018-12-06T22:29:01.798Z,6.93
2018-12-06T22:31:28.379Z,6.73
2018-12-06T22:33:54.739Z,7.37
2018-12-06T22:36:21.327Z,6.73
2018-12-06T22:38:47.826Z,6.33
2018-12-06T22:41:14.469Z,7.27
2018-12-06T22:43:41.083Z,6.63
2018-12-06T22:46:07.562Z,6.80
2018-12-06T22:48:34.191Z,6.43
2018-12-06T22:51:00.791Z,6.43
2018-12-06T22:53:27.293Z,6.17
2018-12-06T22:55:53.891Z,7.30
2018-12-06T22:58:20.357Z,5.67
2018-12-06T23:00:48.866Z,5.03
2018-12-06T23:03:15.464Z,4.83
2018-12-06T23:05:41.940Z,4.73
2018-12-06T23:08:08.295Z,4.70
2018-12-06T23:10:34.976Z,3.90
2018-12-06T23:13:01.558Z,4.53
2018-12-06T23:15:28.004Z,4.20
2018-12-06T23:17:54.506Z,4.30
2018-12-06T23:20:21.223Z,3.90
2018-12-06T23:22:47.916Z,3.87
2018-12-06T23:25:14.539Z,3.90
2018-12-06T23:27:41.139Z,4.23
2018-12-06T23:30:07.617Z,4.40
2018-12-06T23:32:34.209Z,3.30
2018-12-06T23:35:00.791Z,3.87
2018-12-06T23:37:27.161Z,4.10
2018-12-06T23:39:53.763Z,4.13
2018-12-06T23:42:20.260Z,3.90
2018-12-06T23:44:46.899Z,4.37
2018-12-06T23:47:13.403Z,4.30
2018-12-06T23:49:39.915Z,3.93
2018-12-06T23:52:06.284Z,4.10
2018-12-06T23:54:32.640Z,4.80
2018-12-06T23:56:59.236Z,3.97
2018-12-06T23:59:25.900Z,4.03
